createdAt,value
2022-09-28T00:05:32.961Z,6.50
2022-09-28T00:16:04.385Z,6.28
2022-09-28T00:26:26.663Z,5.97
2022-09-28T00:36:50.572Z,7.60
2022-09-28T00:47:39.023Z,6.93
2022-09-28T00:58:05.580Z,7.03
2022-09-28T01:08:29.275Z,7.40
2022-09-28T01:19:00.653Z,6.32
2022-09-28T01:29:46.933Z,9.15
2022-09-28T01:40:11.022Z,7.28
2022-09-28T01:50:39.358Z,8.82
2022-09-28T02:01:05.211Z,8.30
2022-09-28T02:11:28.816Z,7.80
2022-09-28T02:21:55.719Z,9.02
2022-09-28T02:32:21.219Z,9.30
2022-09-28T02:42:53.630Z,10.30
2022-09-28T02:53:33.691Z,13.43
2022-09-28T03:04:02.035Z,11.05
2022-09-28T03:14:25.396Z,6.75
2022-09-28T03:24:50.948Z,9.43
2022-09-28T03:35:13.724Z,16.75
2022-09-28T03:45:35.421Z,10.20
2022-09-28T03:56:03.670Z,10.52
2022-09-28T04:06:26.317Z,8.05
2022-09-28T04:16:51.606Z,11.85
2022-09-28T04:27:30.896Z,11.07
2022-09-28T04:37:53.666Z,13.55
2022-09-28T04:48:14.942Z,11.27
2022-09-28T04:58:59.803Z,11.55
2022-09-28T05:09:21.965Z,14.00
2022-09-28T05:19:45.193Z,10.73
2022-09-28T05:30:08.418Z,12.63
2022-09-28T05:40:50.177Z,9.05
2022-09-28T05:51:12.049Z,11.45
2022-09-28T06:01:35.459Z,13.70
2022-09-28T06:11:59.360Z,12.95
2022-09-28T06:22:37.204Z,14.82
2022-09-28T06:33:03.038Z,11.23
2022-09-28T06:43:32.142Z,11.48
2022-09-28T06:54:08.342Z,10.88
2022-09-28T07:04:45.119Z,11.50
2022-09-28T07:15:26.240Z,6.10
2022-09-28T07:25:50.198Z,11.02
2022-09-28T07:36:39.121Z,9.73
2022-09-28T07:47:02.654Z,7.68
2022-09-28T07:57:48.140Z,11.32
2022-09-28T08:08:22.654Z,9.10
2022-09-28T08:18:44.167Z,8.95
2022-09-28T08:29:08.151Z,8.20
2022-09-28T08:39:41.370Z,6.80
2022-09-28T08:50:24.563Z,5.88
2022-09-28T09:01:18.950Z,3.90
2022-09-28T09:11:58.685Z,3.77
2022-09-28T09:22:32.849Z,6.43
2022-09-28T09:33:11.433Z,4.43
2022-09-28T09:44:06.797Z,3.85
2022-09-28T09:55:04.867Z,4.50
2022-09-28T10:05:42.341Z,5.32
2022-09-28T10:16:13.290Z,3.80
2022-09-28T10:26:50.547Z,6.20
2022-09-28T10:37:24.322Z,7.93
2022-09-28T10:48:07.425Z,5.68
2022-09-28T10:58:37.407Z,5.97
2022-09-28T11:09:09.045Z,4.38
2022-09-28T11:19:31.784Z,4.35
2022-09-28T11:30:02.303Z,6.93
2022-09-28T11:40:52.065Z,4.43
2022-09-28T11:51:21.860Z,6.50
2022-09-28T12:02:04.018Z,5.22
2022-09-28T12:12:48.514Z,4.95
2022-09-28T12:23:16.542Z,8.20
2022-09-28T12:33:39.998Z,4.13
2022-09-28T12:44:18.476Z,7.20
2022-09-28T12:55:05.101Z,3.67
2022-09-28T13:05:44.969Z,2.83
2022-09-28T13:16:13.947Z,6.07
2022-09-28T13:26:39.483Z,6.10
2022-09-28T13:37:26.829Z,6.63
2022-09-28T13:48:04.028Z,2.53
2022-09-28T13:58:29.110Z,7.90
2022-09-28T14:09:26.006Z,3.63
2022-09-28T14:19:54.668Z,4.00
2022-09-28T14:30:32.725Z,4.72
2022-09-28T14:41:15.770Z,2.58
2022-09-28T14:52:04.318Z,3.33
2022-09-28T15:02:32.428Z,2.95
2022-09-28T15:12:57.180Z,2.17
2022-09-28T15:23:35.613Z,2.60
2022-09-28T15:34:15.262Z,2.33
2022-09-28T15:44:42.962Z,3.25
2022-09-28T15:55:19.941Z,3.03
2022-09-28T16:05:46.843Z,3.42
2022-09-28T16:16:16.307Z,4.00
2022-09-28T16:26:39.413Z,6.72
2022-09-28T16:37:00.809Z,8.85
2022-09-28T16:47:23.951Z,7.60
2022-09-28T16:57:46.537Z,9.73
2022-09-28T17:08:14.690Z,9.85
2022-09-28T17:18:46.502Z,8.32
2022-09-28T17:29:14.716Z,8.55
2022-09-28T17:39:36.460Z,42.10
2022-09-28T17:49:59.810Z,13.63
2022-09-28T18:00:24.007Z,11.70
2022-09-28T18:10:47.589Z,10.52
2022-09-28T18:21:10.375Z,15.90
2022-09-28T18:31:34.978Z,8.98
2022-09-28T18:42:12.297Z,11.55
2022-09-28T18:52:39.493Z,9.55
2022-09-28T19:03:13.597Z,11.07
2022-09-28T19:13:38.633Z,11.77
2022-09-28T19:24:05.059Z,15.00
2022-09-28T19:34:36.429Z,17.50
2022-09-28T19:45:00.759Z,16.33
2022-09-28T19:55:25.209Z,29.20
2022-09-28T20:05:49.351Z,18.17
2022-09-28T20:16:14.517Z,17.85
2022-09-28T20:26:37.938Z,14.98
2022-09-28T20:37:01.218Z,18.02
2022-09-28T20:47:23.700Z,15.98
2022-09-28T20:57:46.862Z,15.10
2022-09-28T21:08:08.298Z,13.25
2022-09-28T21:18:31.310Z,17.88
2022-09-28T21:28:53.853Z,18.00
2022-09-28T21:39:22.181Z,14.23
2022-09-28T21:49:43.942Z,17.25
2022-09-28T22:00:08.142Z,10.63
2022-09-28T22:10:29.413Z,11.57
2022-09-28T22:20:59.258Z,11.18
2022-09-28T22:31:23.297Z,11.40
2022-09-28T22:41:49.220Z,16.20
2022-09-28T22:52:17.607Z,15.25
2022-09-28T23:02:40.875Z,12.32
2022-09-28T23:13:02.606Z,12.20
2022-09-28T23:23:25.392Z,16.35
2022-09-28T23:33:52.812Z,14.50
2022-09-28T23:44:20.920Z,15.15
2022-09-28T23:54:46.762Z,10.88
